createdAt,value
2023-01-27T00:01:17.806Z,6.40
2023-01-27T00:03:46.207Z,6.40
2023-01-27T00:06:14.624Z,6.40
2023-01-27T00:08:47.088Z,6.40
2023-01-27T00:11:40.953Z,6.40
2023-01-27T00:14:09.107Z,6.40
2023-01-27T00:16:37.447Z,6.40
2023-01-27T00:19:06.150Z,6.40
2023-01-27T00:21:51.914Z,6.40
2023-01-27T00:24:39.643Z,6.40
2023-01-27T00:27:10.385Z,6.40
2023-01-27T00:29:40.862Z,6.40
2023-01-27T00:32:26.425Z,6.40
2023-01-27T00:34:54.568Z,6.40
2023-01-27T00:37:22.724Z,6.50
2023-01-27T00:39:52.586Z,6.50
2023-01-27T00:42:20.766Z,6.50
2023-01-27T00:45:04.987Z,6.50
2023-01-27T00:47:33.783Z,6.50
2023-01-27T00:50:01.931Z,6.50
2023-01-27T00:52:30.488Z,6.50
2023-01-27T00:55:00.143Z,6.50
2023-01-27T00:57:28.395Z,6.50
2023-01-27T00:59:58.858Z,6.50
2023-01-27T01:02:27.855Z,6.50
2023-01-27T01:04:56.189Z,6.50
2023-01-27T01:07:24.328Z,6.60
2023-01-27T01:09:52.887Z,6.60
2023-01-27T01:12:22.411Z,6.50
2023-01-27T01:14:51.995Z,6.60
2023-01-27T01:17:20.163Z,6.80
2023-01-27T01:19:48.336Z,6.50
2023-01-27T01:22:16.625Z,6.60
2023-01-27T01:24:44.781Z,6.60
2023-01-27T01:27:14.411Z,6.60
2023-01-27T01:29:43.926Z,6.90
2023-01-27T01:32:12.274Z,6.60
2023-01-27T01:34:40.476Z,6.60
2023-01-27T01:37:08.631Z,6.90
2023-01-27T01:39:36.795Z,6.60
2023-01-27T01:42:05.245Z,6.90
2023-01-27T01:44:34.068Z,6.60
2023-01-27T01:47:04.396Z,6.60
2023-01-27T01:49:37.996Z,6.60
2023-01-27T01:52:10.511Z,6.60
2023-01-27T01:54:42.621Z,6.60
2023-01-27T01:57:15.709Z,6.70
2023-01-27T01:59:46.653Z,6.60
2023-01-27T02:02:22.234Z,6.60
2023-01-27T02:04:55.922Z,6.70
2023-01-27T02:07:29.102Z,6.60
2023-01-27T02:09:59.535Z,6.60
2023-01-27T02:12:27.799Z,6.60
2023-01-27T02:14:56.258Z,6.60
2023-01-27T02:17:25.815Z,6.60
2023-01-27T02:20:00.170Z,6.60
2023-01-27T02:22:37.501Z,6.70
2023-01-27T02:25:13.877Z,6.60
2023-01-27T02:27:44.411Z,6.70
2023-01-27T02:30:13.231Z,6.70
2023-01-27T02:32:41.827Z,6.70
2023-01-27T02:35:12.847Z,6.70
2023-01-27T02:37:42.033Z,6.70
2023-01-27T02:40:11.945Z,6.70
2023-01-27T02:42:40.220Z,6.70
2023-01-27T02:45:11.557Z,6.70
2023-01-27T02:47:40.042Z,6.70
2023-01-27T02:50:09.241Z,7.00
2023-01-27T02:52:37.426Z,6.60
2023-01-27T02:55:06.891Z,6.60
2023-01-27T02:57:35.142Z,6.60
2023-01-27T03:00:27.861Z,6.60
2023-01-27T03:02:56.453Z,6.60
2023-01-27T03:05:26.419Z,6.60
2023-01-27T03:07:55.167Z,6.60
2023-01-27T03:10:23.810Z,6.60
2023-01-27T03:12:52.667Z,6.60
2023-01-27T03:15:39.273Z,6.60
2023-01-27T03:18:12.478Z,6.80
2023-01-27T03:20:42.077Z,6.60
2023-01-27T03:23:10.965Z,6.60
2023-01-27T03:25:42.604Z,6.60
2023-01-27T03:28:11.337Z,6.60
2023-01-27T03:30:44.773Z,6.60
2023-01-27T03:33:22.464Z,6.60
2023-01-27T03:36:10.933Z,6.50
2023-01-27T03:39:03.140Z,6.60
2023-01-27T03:41:48.879Z,6.60
2023-01-27T03:44:34.640Z,6.50
2023-01-27T03:47:02.822Z,6.50
2023-01-27T03:49:32.359Z,6.50
2023-01-27T03:52:00.608Z,6.50
2023-01-27T03:54:28.788Z,6.50
2023-01-27T03:56:56.980Z,6.50
2023-01-27T03:59:25.261Z,6.50
2023-01-27T04:01:53.825Z,6.50
2023-01-27T04:04:39.267Z,6.50
2023-01-27T04:07:08.797Z,6.50
2023-01-27T04:09:39.102Z,6.50
2023-01-27T04:12:07.159Z,6.50
2023-01-27T04:14:37.729Z,6.60
2023-01-27T04:17:08.771Z,6.60
2023-01-27T04:19:39.861Z,6.60
2023-01-27T04:22:11.380Z,6.60
2023-01-27T04:24:39.679Z,6.60
2023-01-27T04:27:09.461Z,6.60
2023-01-27T04:29:41.044Z,6.60
2023-01-27T04:32:14.012Z,6.60
2023-01-27T04:34:47.361Z,6.60
2023-01-27T04:37:18.565Z,6.70
2023-01-27T04:39:48.011Z,6.60
2023-01-27T04:42:18.770Z,6.60
2023-01-27T04:44:46.864Z,6.60
2023-01-27T04:47:19.088Z,6.70
2023-01-27T04:49:47.316Z,6.60
2023-01-27T04:52:20.774Z,6.60
2023-01-27T04:54:56.084Z,6.60
2023-01-27T04:57:26.643Z,6.60
2023-01-27T05:00:16.633Z,7.00
2023-01-27T05:02:51.379Z,6.60
2023-01-27T05:05:19.746Z,6.60
2023-01-27T05:07:51.873Z,6.60
2023-01-27T05:10:23.098Z,6.60
2023-01-27T05:12:56.660Z,6.60
2023-01-27T05:15:24.954Z,6.60
2023-01-27T05:17:53.487Z,6.60
2023-01-27T05:20:21.833Z,6.60
2023-01-27T05:23:12.325Z,6.60
2023-01-27T05:25:43.841Z,6.60
2023-01-27T05:28:12.205Z,6.60
2023-01-27T05:30:40.339Z,6.60
2023-01-27T05:33:10.881Z,6.60
2023-01-27T05:35:39.035Z,6.60
2023-01-27T05:38:08.468Z,6.60
2023-01-27T05:40:36.630Z,6.60
2023-01-27T05:43:04.819Z,6.60
2023-01-27T05:45:33.003Z,6.60
2023-01-27T05:48:04.308Z,7.00
2023-01-27T05:50:32.649Z,6.60
2023-01-27T05:53:00.916Z,6.60
2023-01-27T05:55:30.448Z,6.70
2023-01-27T05:57:58.599Z,6.70
2023-01-27T06:00:26.758Z,6.70
2023-01-27T06:02:54.955Z,6.60
2023-01-27T06:05:23.125Z,6.60
2023-01-27T06:07:51.311Z,6.70
2023-01-27T06:10:19.691Z,6.60
2023-01-27T06:12:49.170Z,6.70
2023-01-27T06:15:17.416Z,6.60
2023-01-27T06:17:45.606Z,6.70
2023-01-27T06:20:14.116Z,6.90
2023-01-27T06:22:42.301Z,6.70
2023-01-27T06:25:10.999Z,6.60
2023-01-27T06:27:39.129Z,6.60
2023-01-27T06:30:10.510Z,6.60
2023-01-27T06:32:38.783Z,6.60
2023-01-27T06:35:08.081Z,6.70
2023-01-27T06:37:36.861Z,6.70
2023-01-27T06:40:06.350Z,6.70
2023-01-27T06:42:37.026Z,6.70
2023-01-27T06:45:06.439Z,6.70
2023-01-27T06:47:35.989Z,6.70
2023-01-27T06:50:04.699Z,6.70
2023-01-27T06:52:33.018Z,6.70
2023-01-27T06:55:01.347Z,6.70
2023-01-27T06:57:29.936Z,6.70
2023-01-27T06:59:58.199Z,6.70
2023-01-27T07:02:26.535Z,6.70
2023-01-27T07:04:56.110Z,6.70
2023-01-27T07:07:24.299Z,6.70
2023-01-27T07:09:53.113Z,6.70
2023-01-27T07:12:21.243Z,6.70
2023-01-27T07:14:49.371Z,6.70
2023-01-27T07:17:17.665Z,6.70
2023-01-27T07:19:45.801Z,6.70
2023-01-27T07:22:15.383Z,6.70
2023-01-27T07:24:43.710Z,6.70
2023-01-27T07:27:11.917Z,6.70
2023-01-27T07:29:40.079Z,6.80
2023-01-27T07:32:08.638Z,6.80
2023-01-27T07:34:36.858Z,6.80
2023-01-27T07:37:05.604Z,6.80
2023-01-27T07:39:35.311Z,6.80
2023-01-27T07:42:03.564Z,6.80
2023-01-27T07:44:31.910Z,6.80
2023-01-27T07:47:00.945Z,6.80
2023-01-27T07:49:29.131Z,6.80
2023-01-27T07:51:57.245Z,6.80
2023-01-27T07:54:26.197Z,6.80
2023-01-27T07:56:55.756Z,6.80
2023-01-27T07:59:23.989Z,6.80
2023-01-27T08:01:52.109Z,6.90
2023-01-27T08:04:20.569Z,6.90
2023-01-27T08:06:48.766Z,6.80
2023-01-27T08:09:17.073Z,6.90
2023-01-27T08:11:45.318Z,6.90
2023-01-27T08:14:14.976Z,6.90
2023-01-27T08:16:43.350Z,6.90
2023-01-27T08:19:11.727Z,6.90
2023-01-27T08:21:40.003Z,6.90
2023-01-27T08:24:10.320Z,6.90
2023-01-27T08:26:38.694Z,6.90
2023-01-27T08:29:07.183Z,6.90
2023-01-27T08:31:36.796Z,6.90
2023-01-27T08:34:05.147Z,6.90
2023-01-27T08:36:33.555Z,7.00
2023-01-27T08:39:01.788Z,7.00
2023-01-27T08:41:30.213Z,6.90
2023-01-27T08:43:58.382Z,6.90
2023-01-27T08:46:26.958Z,6.90
2023-01-27T08:48:56.685Z,6.90
2023-01-27T08:51:25.043Z,7.00
2023-01-27T08:53:53.297Z,6.90
2023-01-27T08:56:21.801Z,6.90
2023-01-27T08:58:52.314Z,7.00
2023-01-27T09:01:21.877Z,7.00
2023-01-27T09:03:50.657Z,7.00
2023-01-27T09:06:21.759Z,7.00
2023-01-27T09:09:11.192Z,7.00
2023-01-27T09:11:43.227Z,7.00
2023-01-27T09:14:12.230Z,7.00
2023-01-27T09:16:40.709Z,7.00
2023-01-27T09:19:09.713Z,7.00
2023-01-27T09:21:39.370Z,7.00
2023-01-27T09:24:08.134Z,7.00
2023-01-27T09:26:36.558Z,7.00
2023-01-27T09:29:04.775Z,7.00
2023-01-27T09:31:33.547Z,7.00
2023-01-27T09:34:01.971Z,7.00
2023-01-27T09:36:30.477Z,7.10
2023-01-27T09:39:03.858Z,7.00
2023-01-27T09:42:08.429Z,7.10
2023-01-27T09:44:53.865Z,7.10
2023-01-27T09:47:37.955Z,7.10
2023-01-27T09:50:22.189Z,7.10
2023-01-27T09:53:21.190Z,7.10
2023-01-27T09:55:56.314Z,7.10
2023-01-27T09:58:35.326Z,7.10
2023-01-27T10:01:14.164Z,7.10
2023-01-27T10:04:01.428Z,7.10
2023-01-27T10:06:58.835Z,7.10
2023-01-27T10:10:03.341Z,7.10
2023-01-27T10:12:45.724Z,7.10
2023-01-27T10:15:24.747Z,7.10
2023-01-27T10:18:01.668Z,7.10
2023-01-27T10:20:36.862Z,7.10
2023-01-27T10:23:17.686Z,7.20
2023-01-27T10:25:54.577Z,6.80
2023-01-27T10:28:25.780Z,7.20
2023-01-27T10:31:01.019Z,7.20
2023-01-27T10:33:43.737Z,7.30
2023-01-27T10:36:21.629Z,7.20
2023-01-27T10:39:00.315Z,7.20
2023-01-27T10:41:35.258Z,7.20
2023-01-27T10:44:26.649Z,7.20
2023-01-27T10:47:03.061Z,7.20
2023-01-27T10:49:35.201Z,7.20
2023-01-27T10:52:10.559Z,7.20
2023-01-27T10:54:44.116Z,7.20
2023-01-27T10:57:18.769Z,7.20
2023-01-27T11:00:17.437Z,7.20
2023-01-27T11:02:47.862Z,7.20
2023-01-27T11:05:21.445Z,7.20
2023-01-27T11:07:59.214Z,7.20
2023-01-27T11:10:34.302Z,7.20
2023-01-27T11:13:05.150Z,7.20
2023-01-27T11:15:36.068Z,7.20
2023-01-27T11:18:11.187Z,7.20
2023-01-27T11:20:42.246Z,7.20
2023-01-27T11:23:18.481Z,7.20
2023-01-27T11:25:55.195Z,7.20
2023-01-27T11:28:33.576Z,7.20
2023-01-27T11:31:12.863Z,7.10
2023-01-27T11:33:54.977Z,7.20
2023-01-27T11:36:23.365Z,7.20
2023-01-27T11:38:52.220Z,7.30
2023-01-27T11:41:20.544Z,7.20
2023-01-27T11:43:49.126Z,7.30
2023-01-27T11:46:23.891Z,7.30
2023-01-27T11:48:56.114Z,7.30
2023-01-27T11:51:26.323Z,7.30
2023-01-27T11:54:02.684Z,7.30
2023-01-27T11:56:33.087Z,7.30
2023-01-27T11:59:05.827Z,7.30
2023-01-27T12:01:44.721Z,7.30
2023-01-27T12:04:18.810Z,7.30
2023-01-27T12:06:50.365Z,7.30
2023-01-27T12:09:34.202Z,7.30
2023-01-27T12:12:12.979Z,7.30
2023-01-27T12:14:49.534Z,7.30
2023-01-27T12:17:28.861Z,7.20
2023-01-27T12:19:59.869Z,7.30
2023-01-27T12:22:31.273Z,7.20
2023-01-27T12:25:02.978Z,7.30
2023-01-27T12:27:34.719Z,7.30
2023-01-27T12:30:06.472Z,7.20
2023-01-27T12:32:41.793Z,7.30
2023-01-27T12:35:22.152Z,7.30
2023-01-27T12:37:56.223Z,7.30
2023-01-27T12:40:27.361Z,7.30
2023-01-27T12:43:10.697Z,7.40
2023-01-27T12:45:40.268Z,7.30
2023-01-27T12:48:22.071Z,7.30
2023-01-27T12:51:06.007Z,7.30
2023-01-27T12:53:34.573Z,7.30
2023-01-27T12:56:11.103Z,7.30
2023-01-27T12:58:41.570Z,7.30
2023-01-27T13:01:26.080Z,7.30
2023-01-27T13:03:59.234Z,7.30
2023-01-27T13:06:39.439Z,7.30
2023-01-27T13:09:20.283Z,7.50
2023-01-27T13:11:48.611Z,7.40
2023-01-27T13:14:19.216Z,7.40
2023-01-27T13:16:53.074Z,7.30
2023-01-27T13:19:26.623Z,7.40
2023-01-27T13:21:56.171Z,7.30
2023-01-27T13:24:34.266Z,7.40
2023-01-27T13:27:04.960Z,7.40
2023-01-27T13:29:36.224Z,7.30
2023-01-27T13:32:10.818Z,7.40
2023-01-27T13:34:46.509Z,7.40
2023-01-27T13:37:18.639Z,7.40
2023-01-27T13:40:03.389Z,7.40
2023-01-27T13:42:40.082Z,7.40
2023-01-27T13:45:16.044Z,7.40
2023-01-27T13:47:51.992Z,7.40
2023-01-27T13:50:31.471Z,7.40
2023-01-27T13:53:01.512Z,7.50
2023-01-27T13:55:48.387Z,7.40
2023-01-27T13:58:25.218Z,7.40
2023-01-27T14:01:00.551Z,7.50
2023-01-27T14:03:48.684Z,7.50
2023-01-27T14:06:39.604Z,7.50
2023-01-27T14:09:20.761Z,7.50
2023-01-27T14:11:54.020Z,7.50
2023-01-27T14:14:56.106Z,7.50
2023-01-27T14:17:35.942Z,7.50
2023-01-27T14:20:17.767Z,7.50
2023-01-27T14:22:58.540Z,7.50
2023-01-27T14:25:34.435Z,7.50
2023-01-27T14:28:12.841Z,7.50
2023-01-27T14:30:44.458Z,7.50
2023-01-27T14:33:19.525Z,7.50
2023-01-27T14:35:54.538Z,7.20
2023-01-27T14:38:32.493Z,7.50
2023-01-27T14:41:11.447Z,7.50
2023-01-27T14:43:48.956Z,7.50
2023-01-27T14:46:24.424Z,7.50
2023-01-27T14:49:06.202Z,7.80
2023-01-27T14:51:41.094Z,7.50
2023-01-27T14:54:35.894Z,7.50
2023-01-27T14:57:23.971Z,7.50
2023-01-27T15:00:01.953Z,7.50
2023-01-27T15:02:48.457Z,7.50
2023-01-27T15:05:26.215Z,7.80
2023-01-27T15:07:59.540Z,7.50
2023-01-27T15:10:30.950Z,7.50
2023-01-27T15:13:32.929Z,7.50
2023-01-27T15:16:28.760Z,7.50
2023-01-27T15:19:12.430Z,7.50
2023-01-27T15:22:01.385Z,7.60
2023-01-27T15:24:53.023Z,7.60
2023-01-27T15:27:25.473Z,7.60
2023-01-27T15:29:54.137Z,7.60
2023-01-27T15:32:38.775Z,7.60
2023-01-27T15:35:34.576Z,7.60
2023-01-27T15:38:20.496Z,7.60
2023-01-27T15:41:04.877Z,7.60
2023-01-27T15:43:39.656Z,7.60
2023-01-27T15:46:29.834Z,7.60
2023-01-27T15:49:01.432Z,7.30
2023-01-27T15:51:32.251Z,7.60
2023-01-27T15:54:01.340Z,7.60
2023-01-27T15:56:49.018Z,7.60
2023-01-27T15:59:23.747Z,7.60
2023-01-27T16:02:03.248Z,7.60
2023-01-27T16:04:33.314Z,7.60
2023-01-27T16:07:04.022Z,7.60
2023-01-27T16:09:36.422Z,7.60
2023-01-27T16:12:27.127Z,7.60
2023-01-27T16:15:38.949Z,7.50
2023-01-27T16:18:44.659Z,7.60
2023-01-27T16:21:34.564Z,7.60
2023-01-27T16:24:08.169Z,7.50
2023-01-27T16:26:43.515Z,7.50
2023-01-27T16:29:27.097Z,7.70
2023-01-27T16:32:00.038Z,7.50
2023-01-27T16:34:36.343Z,7.50
2023-01-27T16:37:18.430Z,7.50
2023-01-27T16:39:50.886Z,7.50
2023-01-27T16:42:19.851Z,7.50
2023-01-27T16:44:51.959Z,7.60
2023-01-27T16:47:25.891Z,7.60
2023-01-27T16:49:56.600Z,7.60
2023-01-27T16:52:41.193Z,7.60
2023-01-27T16:55:21.834Z,7.60
2023-01-27T16:57:51.396Z,7.60
2023-01-27T17:00:23.321Z,7.60
2023-01-27T17:02:53.225Z,7.60
2023-01-27T17:05:23.600Z,7.60
2023-01-27T17:08:14.359Z,7.60
2023-01-27T17:10:44.221Z,7.60
2023-01-27T17:13:28.086Z,7.60
2023-01-27T17:15:57.305Z,7.60
2023-01-27T17:18:26.522Z,7.60
2023-01-27T17:20:57.696Z,7.60
2023-01-27T17:23:33.183Z,7.60
2023-01-27T17:26:07.003Z,7.60
2023-01-27T17:28:36.605Z,7.60
2023-01-27T17:31:08.227Z,7.60
2023-01-27T17:33:38.443Z,7.60
2023-01-27T17:36:12.071Z,7.60
2023-01-27T17:38:47.254Z,7.60
2023-01-27T17:41:27.263Z,7.60
2023-01-27T17:43:58.963Z,7.60
2023-01-27T17:46:29.748Z,7.60
2023-01-27T17:49:00.475Z,7.60
2023-01-27T17:51:35.773Z,7.60
2023-01-27T17:54:10.072Z,7.60
2023-01-27T17:56:38.343Z,7.60
2023-01-27T17:59:10.430Z,7.60
2023-01-27T18:01:39.122Z,7.60
2023-01-27T18:04:07.599Z,7.60
2023-01-27T18:06:37.972Z,7.60
2023-01-27T18:09:18.624Z,7.60
2023-01-27T18:11:55.423Z,7.80
2023-01-27T18:14:23.979Z,7.70
2023-01-27T18:17:07.051Z,7.60
2023-01-27T18:19:35.729Z,7.60
2023-01-27T18:22:17.264Z,7.60
2023-01-27T18:24:53.854Z,7.60
2023-01-27T18:27:27.801Z,7.60
2023-01-27T18:30:00.318Z,7.60
2023-01-27T18:32:31.755Z,7.60
2023-01-27T18:35:00.396Z,7.80
2023-01-27T18:37:35.896Z,7.60
2023-01-27T18:40:23.041Z,7.60
2023-01-27T18:42:53.011Z,7.60
2023-01-27T18:45:21.428Z,7.60
2023-01-27T18:47:49.597Z,7.60
2023-01-27T18:50:21.755Z,7.60
2023-01-27T18:52:52.583Z,7.60
2023-01-27T18:55:22.587Z,7.60
2023-01-27T18:57:53.163Z,7.60
2023-01-27T19:00:23.561Z,7.60
2023-01-27T19:02:56.225Z,7.60
2023-01-27T19:05:27.976Z,7.60
2023-01-27T19:07:57.975Z,7.60
2023-01-27T19:10:28.460Z,7.60
2023-01-27T19:12:59.359Z,7.60
2023-01-27T19:15:29.012Z,7.60
2023-01-27T19:17:58.605Z,7.60
2023-01-27T19:20:28.770Z,7.60
2023-01-27T19:22:59.553Z,7.60
2023-01-27T19:25:30.946Z,7.60
2023-01-27T19:28:04.329Z,7.60
2023-01-27T19:30:36.266Z,7.60
2023-01-27T19:33:07.411Z,7.70
2023-01-27T19:35:36.749Z,7.60
2023-01-27T19:38:06.338Z,7.60
2023-01-27T19:40:36.959Z,7.60
2023-01-27T19:43:05.558Z,7.60
2023-01-27T19:45:34.052Z,7.60
2023-01-27T19:48:02.438Z,7.60
2023-01-27T19:50:31.648Z,7.60
2023-01-27T19:53:00.328Z,7.60
2023-01-27T19:55:29.939Z,7.60
2023-01-27T19:57:58.259Z,7.60
2023-01-27T20:00:28.922Z,7.60
2023-01-27T20:02:57.993Z,7.60
2023-01-27T20:05:28.992Z,7.60
2023-01-27T20:07:58.328Z,7.30
2023-01-27T20:10:29.747Z,7.60
2023-01-27T20:13:00.430Z,7.60
2023-01-27T20:15:33.194Z,7.60
2023-01-27T20:21:52.724Z,7.60
2023-01-27T20:24:25.644Z,7.60
2023-01-27T20:26:56.484Z,7.60
2023-01-27T20:29:29.206Z,7.60
2023-01-27T20:32:00.889Z,7.60
2023-01-27T20:34:30.691Z,7.60
2023-01-27T20:37:03.627Z,7.60
2023-01-27T20:39:39.956Z,7.60
2023-01-27T20:42:12.049Z,7.40
2023-01-27T20:44:41.107Z,7.60
2023-01-27T20:47:14.458Z,7.60
2023-01-27T20:49:51.124Z,7.80
2023-01-27T20:52:22.214Z,7.60
2023-01-27T20:54:54.442Z,7.60
2023-01-27T20:57:30.457Z,7.60
2023-01-27T21:00:09.099Z,7.60
2023-01-27T21:02:41.825Z,7.60
2023-01-27T21:05:11.508Z,7.60
2023-01-27T21:07:48.682Z,7.60
2023-01-27T21:10:27.640Z,7.60
2023-01-27T21:13:02.922Z,7.60
2023-01-27T21:15:32.693Z,7.60
2023-01-27T21:18:08.617Z,7.60
2023-01-27T21:20:39.152Z,7.60
2023-01-27T21:23:09.430Z,7.50
2023-01-27T21:25:43.419Z,7.60
2023-01-27T21:28:18.549Z,7.50
2023-01-27T21:30:52.914Z,7.60
2023-01-27T21:33:27.598Z,7.50
2023-01-27T21:36:04.811Z,7.60
2023-01-27T21:38:36.215Z,7.50
2023-01-27T21:41:12.993Z,7.60
2023-01-27T21:44:02.388Z,7.50
2023-01-27T21:46:36.033Z,7.60
2023-01-27T21:49:06.420Z,7.60
2023-01-27T21:51:37.066Z,7.60
2023-01-27T21:54:07.977Z,7.60
2023-01-27T21:56:38.696Z,7.60
2023-01-27T21:59:25.378Z,7.60
2023-01-27T22:01:55.320Z,7.60
2023-01-27T22:04:23.663Z,7.50
2023-01-27T22:06:51.908Z,7.60
2023-01-27T22:09:20.228Z,7.60
2023-01-27T22:11:48.492Z,7.60
2023-01-27T22:14:16.802Z,7.50
2023-01-27T22:16:46.598Z,7.60
2023-01-27T22:19:14.871Z,7.80
2023-01-27T22:21:43.213Z,7.60
2023-01-27T22:24:11.690Z,7.60
2023-01-27T22:26:40.024Z,7.70
2023-01-27T22:29:08.466Z,7.60
2023-01-27T22:31:37.626Z,7.90
2023-01-27T22:34:08.089Z,7.60
2023-01-27T22:36:36.641Z,7.60
2023-01-27T22:39:05.449Z,7.60
2023-01-27T22:41:33.754Z,7.70
2023-01-27T22:44:02.197Z,7.90
2023-01-27T22:46:30.513Z,7.60
2023-01-27T22:48:58.767Z,7.60
2023-01-27T22:51:28.471Z,7.60
2023-01-27T22:53:56.691Z,7.60
2023-01-27T22:56:25.098Z,7.60
2023-01-27T22:58:53.331Z,7.60
2023-01-27T23:01:21.825Z,7.50
2023-01-27T23:03:50.058Z,7.50
2023-01-27T23:06:18.419Z,7.90
2023-01-27T23:08:48.034Z,7.50
2023-01-27T23:11:16.214Z,7.50
2023-01-27T23:13:44.484Z,7.50
2023-01-27T23:16:12.740Z,7.50
2023-01-27T23:18:41.041Z,7.50
2023-01-27T23:21:09.850Z,7.50
2023-01-27T23:23:38.649Z,7.50
2023-01-27T23:26:09.479Z,7.50
2023-01-27T23:28:39.789Z,7.50
2023-01-27T23:31:10.823Z,7.50
2023-01-27T23:33:40.601Z,7.50
2023-01-27T23:36:10.815Z,7.50
2023-01-27T23:38:39.569Z,7.50
2023-01-27T23:41:13.570Z,7.50
2023-01-27T23:43:41.761Z,7.50
2023-01-27T23:46:11.396Z,7.50
2023-01-27T23:48:39.577Z,7.50
2023-01-27T23:51:09.516Z,7.50
2023-01-27T23:53:37.875Z,7.50
2023-01-27T23:56:10.419Z,7.50
2023-01-27T23:58:38.645Z,7.50
